АЭРОДРОМУУД

ICAO:
ZMCK
Нэр:
УЛААНБААТАР / Чингис Хаан
Ахц:
473849N 1064912E
081012 ZMUBYNYX
(A0164/22 NOTAMN
Q) ZMUB/QFATT/IV/BO /A /000/999/4738N10649E005
A) ZMCK B) 2205190000 C) 2206012359
E) TRIGGER NOTAM-PERM AIRAC AIP AMDT 04/22 WEF 19 MAY 2022 -CHANGES OF TWY AND APN STRENGTH)
- 1 month ago -
METAR
No records found.
TAF
TAF ZMCK 210450Z 2106/2115 VRB02MPS 9999 FEW030CB SCT033 PROB30 TEMPO 2108/2115 VRB08MPS TSRA SCT027CB SCT030=
- 54 minutes ago -
TAF ZMCK 210450Z 2106/2115 VRB02MPS 9999 FEW030CB SCT033 PROB30 TEMPO 2108/2115 VRB08MPS TSRA SCT027CB SCT030=
- 54 minutes ago -
TAF ZMCK 210440Z 2106/2212 VRB02MPS 9999 FEW030CB SCT033 TX28/2107Z TN12/2122Z PROB30 TEMPO 2108/2120 VRB08MPS TSRA SCT027CB SCT030 BECMG 2122/2124 34007MPS BECMG 2208/2210 VRB02MPS=
- 1 hour ago -
TAF ZMCK 210440Z 2106/2212 VRB02MPS 9999 FEW030CB SCT033 TX28/2107Z TN12/2122Z PROB30 TEMPO 2108/2120 VRB08MPS TSRA SCT027CB SCT030 BECMG 2122/2124 34007MPS BECMG 2208/2210 VRB02MPS=
- 1 hour ago -
TAF ZMCK 210150Z 2103/2112 VRB02MPS 9999 FEW030CB SCT033=
- 4 hours ago -
TAF ZMCK 210150Z 2103/2112 VRB02MPS 9999 FEW030CB SCT033=
- 4 hours ago -
TAF ZMCK 202250Z 2100/2109 VRB02MPS 9999 FEW030CB SCT033=
- 7 hours ago -
TAF ZMCK 202250Z 2100/2109 VRB02MPS 9999 FEW030CB SCT033=
- 7 hours ago -
TAF ZMCK 202234Z 2100/2206 VRB02MPS 9999 FEW030CB SCT033 TX27/2107Z TN12/2122Z PROB40 TEMPO 2109/2116 VRB08MPS TSRA SCT027CB SCT030=
- 7 hours ago -
TAF ZMCK 202234Z 2100/2206 VRB02MPS 9999 FEW030CB SCT033 TX27/2107Z TN12/2122Z PROB40 TEMPO 2109/2116 VRB08MPS TSRA SCT027CB SCT030=
- 7 hours ago -
TAF ZMCK 201955Z 2021/2106 VRB02MPS 9999 FEW030CB SCT033=
- 10 hours ago -
TAF ZMCK 201955Z 2021/2106 VRB02MPS 9999 FEW030CB SCT033=
- 10 hours ago -
TAF ZMCK 201633Z 2018/2124 VRB02MPS 9999 FEW030CB SCT033 TN08/2022Z TX27/2107Z PROB40 TEMPO 2108/2114 VRB08MPS TSRA SCT027CB SCT030=
- 13 hours ago -
TAF ZMCK 201633Z 2018/2124 VRB02MPS 9999 FEW030CB SCT033 TN08/2022Z TX27/2107Z PROB40 TEMPO 2108/2114 VRB08MPS TSRA SCT027CB SCT030=
- 13 hours ago -
TAF ZMCK 201036Z 2012/2118 VRB02MPS 9999 FEW030CB SCT033 TN08/2022Z TX27/2107Z PROB40 TEMPO 2108/2114 VRB08MPS TSRA SCT027CB SCT030=
- 19 hours ago -
TAF ZMCK 201036Z 2012/2118 VRB02MPS 9999 FEW030CB SCT033 TN08/2022Z TX27/2107Z PROB40 TEMPO 2108/2114 VRB08MPS TSRA SCT027CB SCT030=
- 19 hours ago -
TAF ZMCK 200440Z 2006/2112 VRB02MPS 9999 FEW030CB SCT033 TX27/2007Z TN07/2022Z=
- 1 day ago -
TAF ZMCK 200440Z 2006/2112 VRB02MPS 9999 FEW030CB SCT033 TX27/2007Z TN07/2022Z=
- 1 day ago -
TAF ZMCK 192240Z 2000/2106 VRB02MPS 9999 SCT033 TX27/2007Z TN07/2022Z=
- 1 day ago -
TAF ZMCK 192240Z 2000/2106 VRB02MPS 9999 SCT033 TX27/2007Z TN07/2022Z=
- 1 day ago -